Time;durP1;ratioP1;P1;durP2;ratioP2;P2;SDS_P1;SDS_P2;PMS_P1;PMS_P2;Temp;Humidity;BMP_temperature;BMP_pressure;BME280_temperature;BME280_humidity;BME280_pressure;Samples;Min_cycle;Max_cycle;Signal;HPM_P1;HPM_P2
2021/12/31 00:00:17;;;;;;;1.55;1.17;;;;;;;14.72;96.30;96958.66;5037200;28;20206;-73
2021/12/31 00:02:44;;;;;;;2.35;1.17;;;;;;;14.60;96.35;96956.66;5036951;28;20701;-73
2021/12/31 00:05:11;;;;;;;1.08;0.90;;;;;;;14.55;97.05;96953.72;5037344;28;20236;-73
2021/12/31 00:07:38;;;;;;;1.55;1.00;;;;;;;14.38;96.74;96944.31;5036465;28;20197;-73
2021/12/31 00:10:07;;;;;;;1.27;1.02;;;;;;;14.71;95.73;96949.91;5037402;28;20193;-73
2021/12/31 00:12:35;;;;;;;2.05;1.00;;;;;;;14.32;96.38;96942.38;5036449;28;20218;-73
2021/12/31 00:15:01;;;;;;;2.33;0.90;;;;;;;14.69;94.59;96937.81;5037506;28;20228;-73
2021/12/31 00:17:28;;;;;;;1.73;1.15;;;;;;;14.32;96.02;96939.75;5034686;28;20198;-73
2021/12/31 00:20:01;;;;;;;2.10;1.00;;;;;;;14.40;95.58;96943.13;5037596;28;20204;-73
2021/12/31 00:22:52;;;;;;;2.15;1.20;;;;;;;14.19;96.63;96943.06;5036720;28;20211;-73
2021/12/31 00:25:20;;;;;;;2.22;1.17;;;;;;;14.60;94.67;96943.38;5037249;28;20223;-73
2021/12/31 00:27:47;;;;;;;1.65;0.93;;;;;;;14.51;93.25;96941.84;5037321;28;20208;-73
2021/12/31 00:30:14;;;;;;;1.20;0.90;;;;;;;14.53;92.23;96940.66;5037539;28;20217;-73
2021/12/31 00:32:40;;;;;;;0.97;0.90;;;;;;;14.57;91.96;96933.97;5036511;28;20221;-73
2021/12/31 00:35:07;;;;;;;1.02;0.60;;;;;;;14.49;92.45;96938.56;5038180;28;20586;-73
2021/12/31 00:37:36;;;;;;;2.43;1.03;;;;;;;14.76;91.79;96936.88;5037856;28;20201;-73
2021/12/31 00:40:06;;;;;;;1.20;0.75;;;;;;;14.64;92.57;96938.34;5037740;28;20205;-73
2021/12/31 00:42:34;;;;;;;1.27;0.93;;;;;;;14.64;92.57;96943.66;5037692;28;20679;-73
2021/12/31 00:45:00;;;;;;;3.08;1.10;;;;;;;14.54;91.78;96946.81;5037569;28;20232;-73
2021/12/31 00:47:27;;;;;;;1.07;0.63;;;;;;;14.35;93.54;96942.06;5037092;28;20212;-73
2021/12/31 00:49:53;;;;;;;1.50;1.00;;;;;;;14.49;93.36;96946.53;5038826;28;20218;-73
2021/12/31 00:52:20;;;;;;;2.55;1.60;;;;;;;14.49;93.49;96943.88;5033900;28;21339;-73
2021/12/31 00:54:47;;;;;;;2.85;1.00;;;;;;;14.57;93.04;96927.84;5037061;28;20593;-73
2021/12/31 00:57:13;;;;;;;1.27;0.95;;;;;;;14.58;93.08;96932.97;5037543;28;20201;-73
2021/12/31 00:59:41;;;;;;;1.75;1.30;;;;;;;14.62;94.52;96939.56;5037046;28;20205;-73
2021/12/31 01:02:11;;;;;;;1.25;0.90;;;;;;;14.50;95.09;96938.38;5036262;28;20205;-73
2021/12/31 01:04:37;;;;;;;1.60;1.00;;;;;;;14.23;95.53;96933.72;5036461;28;21036;-73
2021/12/31 01:07:04;;;;;;;1.20;0.90;;;;;;;14.22;95.68;96936.56;5037227;28;20214;-75
2021/12/31 01:09:32;;;;;;;2.63;1.40;;;;;;;14.39;95.80;96949.44;5037010;28;20672;-72
2021/12/31 01:11:59;;;;;;;1.00;0.95;;;;;;;14.44;95.11;96947.06;5036985;28;20224;-74
2021/12/31 01:14:30;;;;;;;1.40;1.30;;;;;;;14.54;94.82;96941.50;5036407;28;20654;-72
2021/12/31 01:17:02;;;;;;;1.57;1.20;;;;;;;14.68;94.51;96944.94;5037050;28;20295;-72
2021/12/31 01:19:46;;;;;;;2.17;1.13;;;;;;;14.41;95.27;96946.59;5036660;28;20216;-73
2021/12/31 01:22:13;;;;;;;1.88;1.10;;;;;;;14.59;94.17;96952.34;5036737;28;20209;-74
2021/12/31 01:24:40;;;;;;;2.53;1.10;;;;;;;14.34;94.96;96954.47;5036760;28;20220;-74
2021/12/31 01:27:06;;;;;;;1.73;1.08;;;;;;;14.13;95.91;96953.56;5036416;28;20211;-73
2021/12/31 01:29:33;;;;;;;1.42;0.80;;;;;;;14.22;96.20;96955.94;5036666;28;20701;-74
2021/12/31 01:32:00;;;;;;;1.48;1.15;;;;;;;14.66;94.84;96954.09;5036661;28;20221;-75
2021/12/31 01:34:27;;;;;;;0.90;0.75;;;;;;;14.34;95.08;96954.47;5035893;28;20221;-73
2021/12/31 01:36:53;;;;;;;1.88;1.10;;;;;;;14.32;94.89;96960.94;5036573;28;20661;-72
2021/12/31 01:39:20;;;;;;;0.80;0.70;;;;;;;14.54;93.80;96957.41;5036540;28;20586;-72
2021/12/31 01:41:47;;;;;;;1.80;0.90;;;;;;;14.36;94.29;96959.59;5036725;28;20205;-75
2021/12/31 01:44:13;;;;;;;1.88;1.08;;;;;;;14.10;96.05;96957.41;5038157;28;20232;-72
2021/12/31 01:46:54;;;;;;;1.40;0.80;;;;;;;14.76;93.97;96954.63;5037955;28;20201;-73
2021/12/31 01:49:23;;;;;;;1.17;0.95;;;;;;;14.51;94.81;96958.59;5036940;28;20675;-72
2021/12/31 01:51:50;;;;;;;1.80;1.13;;;;;;;14.42;94.29;96961.50;5037057;28;20230;-74
2021/12/31 01:54:17;;;;;;;1.48;1.10;;;;;;;14.33;94.59;96963.44;5035182;28;20318;-74
2021/12/31 01:56:43;;;;;;;1.35;0.85;;;;;;;13.92;96.66;96963.97;5037282;28;20208;-71
2021/12/31 01:59:11;;;;;;;2.03;1.08;;;;;;;14.28;96.22;96960.53;5036419;28;20210;-75
2021/12/31 02:01:38;;;;;;;1.95;1.38;;;;;;;14.33;94.85;96954.66;5036681;28;20212;-75
2021/12/31 02:04:05;;;;;;;1.75;1.00;;;;;;;14.29;94.82;96956.03;5036277;28;20312;-72
2021/12/31 02:06:34;;;;;;;2.90;1.00;;;;;;;14.34;95.72;96956.31;5035951;28;20197;-73
2021/12/31 02:09:02;;;;;;;1.13;0.87;;;;;;;14.39;95.31;96959.22;5036365;28;20615;-72
2021/12/31 02:11:28;;;;;;;1.13;0.82;;;;;;;14.25;95.05;96950.25;5036461;28;20201;-75
2021/12/31 02:13:55;;;;;;;1.97;1.00;;;;;;;14.05;97.01;96941.19;5035763;28;20251;-72
2021/12/31 02:16:23;;;;;;;1.77;1.10;;;;;;;14.19;96.19;96951.00;5036509;28;20205;-72
2021/12/31 02:18:49;;;;;;;3.22;1.27;;;;;;;13.92;96.85;96950.75;5036204;28;20208;-73
2021/12/31 02:21:17;;;;;;;1.42;1.00;;;;;;;14.50;95.04;96945.50;5036428;28;20197;-72
2021/12/31 02:23:47;;;;;;;1.58;0.93;;;;;;;14.34;94.38;96940.41;5035518;28;20221;-72
2021/12/31 02:26:14;;;;;;;1.80;1.38;;;;;;;14.34;94.30;96946.50;5036459;28;20201;-72
2021/12/31 02:28:41;;;;;;;4.55;1.92;;;;;;;14.18;95.02;96946.69;5036192;28;20201;-74
2021/12/31 02:31:08;;;;;;;1.60;0.98;;;;;;;14.19;95.26;96953.66;5038895;28;20209;-73
2021/12/31 02:33:35;;;;;;;3.90;1.02;;;;;;;14.06;94.93;96944.63;5039348;28;20227;-72
2021/12/31 02:36:03;;;;;;;2.28;1.33;;;;;;;14.17;94.76;96947.69;5040296;28;20201;-75
2021/12/31 02:38:31;;;;;;;1.10;0.90;;;;;;;14.17;95.22;96949.53;5039920;28;20212;-72
2021/12/31 02:40:58;;;;;;;1.93;1.13;;;;;;;13.87;95.37;96947.81;5040028;28;20201;-72
2021/12/31 02:43:24;;;;;;;2.00;1.52;;;;;;;13.75;95.16;96951.09;5039481;28;20197;-73
2021/12/31 02:45:51;;;;;;;2.20;1.30;;;;;;;13.59;96.01;96948.56;5039748;28;20216;-72
2021/12/31 02:48:25;;;;;;;2.13;1.25;;;;;;;13.99;94.62;96941.09;5039540;28;21076;-75
2021/12/31 02:50:54;;;;;;;1.30;0.80;;;;;;;13.79;95.12;96942.59;5039513;28;20201;-75
2021/12/31 02:53:26;;;;;;;0.77;0.77;;;;;;;13.79;95.42;96955.81;5038703;28;20225;-72
2021/12/31 02:56:01;;;;;;;1.08;0.98;;;;;;;13.84;94.42;96944.72;5039975;28;20213;-72
2021/12/31 02:58:28;;;;;;;0.70;0.70;;;;;;;13.50;96.43;96944.34;5039964;28;20204;-72
2021/12/31 03:00:55;;;;;;;5.90;1.23;;;;;;;13.33;96.27;96939.31;5039603;28;20200;-71
2021/12/31 03:03:27;;;;;;;1.13;0.97;;;;;;;13.39;96.55;96937.63;5038843;28;20323;-72
2021/12/31 03:05:55;;;;;;;1.73;0.93;;;;;;;13.30;96.17;96944.97;5040217;28;20201;-73
2021/12/31 03:08:24;;;;;;;1.57;1.00;;;;;;;13.37;96.63;96928.22;5039001;28;20197;-74
2021/12/31 03:10:51;;;;;;;1.20;0.80;;;;;;;13.35;96.48;96930.22;5038960;28;20208;-73
2021/12/31 03:13:19;;;;;;;1.53;1.10;;;;;;;13.41;96.58;96929.50;5038988;28;20228;-72
2021/12/31 03:15:46;;;;;;;2.17;1.10;;;;;;;13.23;96.66;96925.53;5039792;28;20208;-72
2021/12/31 03:18:19;;;;;;;1.83;1.13;;;;;;;13.62;95.49;96930.50;5039224;28;20208;-72
2021/12/31 03:20:57;;;;;;;1.40;0.90;;;;;;;13.38;96.92;96923.75;5036711;28;20197;-75
2021/12/31 03:23:24;;;;;;;1.67;0.80;;;;;;;13.30;95.42;96921.16;5038489;28;20201;-72
2021/12/31 03:25:51;;;;;;;1.00;0.80;;;;;;;13.27;94.51;96932.13;5038880;28;20209;-72
2021/12/31 03:28:19;;;;;;;1.07;0.87;;;;;;;13.31;95.04;96933.41;5039011;28;20204;-74
2021/12/31 03:30:45;;;;;;;1.93;1.20;;;;;;;13.02;95.48;96928.81;5038951;28;20209;-72
2021/12/31 03:33:12;;;;;;;1.60;0.90;;;;;;;13.07;95.04;96922.97;5037960;28;20221;-74
2021/12/31 03:35:38;;;;;;;1.00;0.80;;;;;;;13.02;94.89;96922.69;5039005;28;20251;-74
2021/12/31 03:38:05;;;;;;;3.80;1.00;;;;;;;13.01;94.37;96923.69;5039199;28;20224;-74
2021/12/31 03:40:32;;;;;;;1.23;1.13;;;;;;;12.96;94.11;96924.22;5038022;28;20205;-72
2021/12/31 03:42:59;;;;;;;1.20;0.97;;;;;;;12.87;93.93;96919.16;5037972;28;20197;-71
2021/12/31 03:45:27;;;;;;;3.90;1.20;;;;;;;12.96;93.85;96912.81;5038915;28;20217;-74
2021/12/31 03:47:53;;;;;;;1.57;1.27;;;;;;;12.64;93.72;96909.47;5038489;28;20205;-72
2021/12/31 03:50:20;;;;;;;1.90;1.13;;;;;;;12.49;93.59;96914.69;5038916;28;20201;-72
2021/12/31 03:52:46;;;;;;;3.07;0.90;;;;;;;12.53;92.07;96909.88;5038013;28;20628;-74
2021/12/31 03:55:13;;;;;;;1.53;1.00;;;;;;;12.44;91.01;96917.03;5038807;28;20247;-73
2021/12/31 03:57:40;;;;;;;0.93;0.70;;;;;;;12.36;91.82;96919.69;5038143;28;20202;-71
2021/12/31 04:00:08;;;;;;;1.47;0.93;;;;;;;12.41;91.69;96912.09;5038657;28;20232;-74
2021/12/31 04:02:36;;;;;;;0.57;0.57;;;;;;;12.36;91.83;96913.59;5037369;28;20252;-73
2021/12/31 04:05:04;;;;;;;1.03;0.70;;;;;;;12.04;92.56;96899.66;5037783;28;20224;-73
2021/12/31 04:07:30;;;;;;;0.97;0.70;;;;;;;11.66;92.65;96895.97;5038702;28;20201;-71
2021/12/31 04:09:57;;;;;;;1.10;0.90;;;;;;;11.69;92.97;96897.44;5038956;28;20212;-74
2021/12/31 04:12:24;;;;;;;0.87;0.70;;;;;;;11.70;92.85;96892.00;5037190;28;20232;-73
2021/12/31 04:14:50;;;;;;;1.20;0.80;;;;;;;11.68;91.90;96896.63;5037810;28;20233;-71
2021/12/31 04:17:16;;;;;;;0.67;0.67;;;;;;;11.53;91.63;96905.38;5039365;28;20205;-73
2021/12/31 04:19:49;;;;;;;0.70;0.70;;;;;;;11.85;90.02;96900.03;5037847;28;20201;-73
2021/12/31 04:22:15;;;;;;;0.50;0.50;;;;;;;11.69;89.72;96903.53;5036792;28;20240;-74
2021/12/31 04:24:52;;;;;;;1.43;0.90;;;;;;;11.60;90.62;96906.38;5037976;28;20225;-73
2021/12/31 04:27:19;;;;;;;1.87;1.00;;;;;;;11.58;90.69;96906.53;5038039;28;20220;-73
2021/12/31 04:29:51;;;;;;;0.67;0.67;;;;;;;11.48;92.99;96905.03;5037627;28;20209;-74
2021/12/31 04:32:18;;;;;;;0.60;0.60;;;;;;;11.44;92.98;96901.06;5037326;28;20449;-72
2021/12/31 04:34:46;;;;;;;1.00;0.83;;;;;;;11.57;94.07;96904.88;5037744;28;20240;-72
2021/12/31 04:37:12;;;;;;;1.00;0.70;;;;;;;11.35;92.55;96909.16;5037223;28;20201;-74
2021/12/31 04:39:39;;;;;;;0.90;0.77;;;;;;;11.31;91.91;96911.28;5037232;28;20717;-72
2021/12/31 04:42:06;;;;;;;1.20;0.70;;;;;;;11.28;90.28;96911.63;5034968;28;20205;-73
2021/12/31 04:44:33;;;;;;;1.40;0.87;;;;;;;11.33;88.98;96911.97;5037826;28;20221;-72
2021/12/31 04:46:59;;;;;;;0.73;0.73;;;;;;;11.01;88.75;96917.22;5037902;28;20211;-71
2021/12/31 04:49:27;;;;;;;1.57;0.60;;;;;;;11.00;87.72;96915.56;5037940;28;20212;-74
2021/12/31 04:51:54;;;;;;;4.67;1.30;;;;;;;10.93;88.86;96906.69;5036949;28;20217;-74
2021/12/31 04:54:21;;;;;;;0.97;0.73;;;;;;;10.61;89.39;96913.69;5035487;28;20709;-73
2021/12/31 04:56:51;;;;;;;0.50;0.50;;;;;;;10.16;89.53;96922.91;5037513;28;20205;-75
2021/12/31 04:59:18;;;;;;;1.03;0.63;;;;;;;10.48;87.30;96921.22;5037812;28;20204;-73
2021/12/31 05:01:44;;;;;;;0.80;0.80;;;;;;;10.19;88.80;96917.31;5036955;28;20696;-72
2021/12/31 05:04:11;;;;;;;0.50;0.50;;;;;;;10.03;91.12;96909.38;5036523;28;20217;-74
2021/12/31 05:06:38;;;;;;;2.00;1.10;;;;;;;10.03;93.01;96904.09;5037258;28;20201;-74
2021/12/31 05:09:05;;;;;;;0.97;0.83;;;;;;;10.30;92.47;96905.66;5036984;28;20728;-70
2021/12/31 05:11:32;;;;;;;0.60;0.60;;;;;;;10.20;90.61;96918.97;5037484;28;20201;-73
2021/12/31 05:13:58;;;;;;;0.70;0.70;;;;;;;10.29;89.57;96911.94;5036417;28;20225;-74
2021/12/31 05:16:25;;;;;;;1.30;0.80;;;;;;;10.28;89.69;96908.47;5036475;28;20209;-72
2021/12/31 05:18:51;;;;;;;0.90;0.70;;;;;;;10.19;91.72;96911.25;5037148;28;20209;-74
2021/12/31 05:21:18;;;;;;;2.30;0.70;;;;;;;10.10;93.44;96901.66;5037152;28;20205;-74
2021/12/31 05:23:44;;;;;;;0.90;0.90;;;;;;;10.35;90.93;96899.78;5035614;28;20222;-73
2021/12/31 05:26:12;;;;;;;2.07;1.03;;;;;;;10.46;91.64;96901.28;5036741;28;20197;-73
2021/12/31 05:28:39;;;;;;;0.63;0.53;;;;;;;10.39;91.32;96897.66;5037538;28;20201;-73
2021/12/31 05:31:06;;;;;;;1.10;0.73;;;;;;;10.26;92.87;96899.06;5037872;28;20205;-73
2021/12/31 05:33:33;;;;;;;0.50;0.50;;;;;;;10.44;94.15;96901.44;5035802;28;20216;-73
2021/12/31 05:36:00;;;;;;;0.83;0.70;;;;;;;10.63;92.51;96893.28;5036683;28;20286;-74
2021/12/31 05:38:27;;;;;;;0.97;0.90;;;;;;;10.64;92.09;96888.81;5036658;28;20209;-72
2021/12/31 05:40:53;;;;;;;1.10;1.00;;;;;;;10.54;92.81;96890.78;5036265;28;21338;-71
2021/12/31 05:43:21;;;;;;;0.90;0.80;;;;;;;10.82;92.30;96892.13;5036269;28;20193;-73
2021/12/31 05:45:47;;;;;;;0.93;0.80;;;;;;;10.62;91.31;96888.16;5036309;28;20212;-74
2021/12/31 05:48:14;;;;;;;0.50;0.50;;;;;;;10.47;92.69;96890.56;5036688;28;20212;-73
2021/12/31 05:50:40;;;;;;;1.13;0.70;;;;;;;10.53;92.55;96899.66;5036730;28;20197;-74
2021/12/31 05:53:07;;;;;;;5.77;0.97;;;;;;;10.56;93.21;96899.34;5035873;28;20228;-74
2021/12/31 05:55:33;;;;;;;2.43;0.90;;;;;;;10.71;92.10;96898.56;5035995;28;20221;-73
2021/12/31 05:58:01;;;;;;;1.17;0.50;;;;;;;10.79;91.39;96898.56;5036339;28;21127;-74
2021/12/31 06:00:30;;;;;;;1.40;1.07;;;;;;;10.94;92.14;96916.22;5036448;28;20223;-74
2021/12/31 06:02:56;;;;;;;1.73;1.07;;;;;;;10.80;94.05;96912.59;5035993;28;20197;-73
2021/12/31 06:05:25;;;;;;;2.13;1.30;;;;;;;10.89;93.32;96908.97;5039530;28;20228;-73
2021/12/31 06:07:52;;;;;;;1.53;1.10;;;;;;;10.92;93.02;96921.81;5040415;28;20204;-74
2021/12/31 06:10:18;;;;;;;1.87;0.93;;;;;;;11.07;94.11;96919.22;5041041;28;20708;-71
2021/12/31 06:12:45;;;;;;;1.63;1.03;;;;;;;10.94;96.83;96915.41;5039583;28;20672;-72
2021/12/31 06:15:15;;;;;;;2.57;1.40;;;;;;;11.16;97.01;96923.50;5040289;28;20221;-74
2021/12/31 06:17:43;;;;;;;2.70;2.03;;;;;;;11.55;96.53;96915.78;5040142;28;20209;-74
2021/12/31 06:20:11;;;;;;;2.87;1.57;;;;;;;11.58;97.14;96913.63;5040617;28;20197;-74
2021/12/31 06:22:38;;;;;;;6.30;1.63;;;;;;;11.48;96.35;96910.31;5039479;28;20559;-73
2021/12/31 06:25:05;;;;;;;3.77;1.70;;;;;;;11.53;98.20;96902.72;5040261;28;20772;-73
2021/12/31 06:27:32;;;;;;;3.30;1.50;;;;;;;11.45;98.50;96905.34;5040330;28;20212;-74
2021/12/31 06:29:58;;;;;;;3.83;1.70;;;;;;;11.35;97.77;96909.97;5039591;28;20698;-71
2021/12/31 06:32:25;;;;;;;3.03;1.70;;;;;;;11.46;97.38;96916.75;5039868;28;20201;-74
2021/12/31 06:34:53;;;;;;;2.20;1.00;;;;;;;11.65;97.37;96911.97;5039990;28;20232;-74
2021/12/31 06:37:19;;;;;;;1.10;1.00;;;;;;;11.58;96.58;96908.34;5039304;28;20197;-72
2021/12/31 06:39:47;;;;;;;3.27;1.57;;;;;;;11.48;97.18;96909.47;5039983;28;20224;-74
2021/12/31 06:42:13;;;;;;;1.70;0.93;;;;;;;11.59;97.23;96908.16;5040267;28;20205;-73
2021/12/31 06:44:41;;;;;;;3.70;1.97;;;;;;;11.77;97.36;96906.19;5039363;28;20581;-74
2021/12/31 06:47:08;;;;;;;2.40;1.80;;;;;;;11.88;97.31;96905.81;5039425;28;20194;-72
2021/12/31 06:49:34;;;;;;;3.77;2.00;;;;;;;11.58;98.76;96905.69;5039087;28;20582;-72
2021/12/31 06:52:02;;;;;;;4.90;2.37;;;;;;;12.08;97.98;96903.63;5039400;28;20671;-73
2021/12/31 06:54:29;;;;;;;4.53;2.17;;;;;;;11.97;97.17;96909.28;5039512;28;20229;-73
2021/12/31 06:56:55;;;;;;;6.57;3.33;;;;;;;11.97;96.91;96896.06;5039702;28;20202;-74
2021/12/31 06:59:21;;;;;;;3.30;1.80;;;;;;;11.95;97.08;96909.44;5038950;28;20193;-73
2021/12/31 07:01:48;;;;;;;3.93;1.97;;;;;;;11.94;96.92;96901.66;5040088;28;20216;-74
2021/12/31 07:04:14;;;;;;;5.40;2.43;;;;;;;12.09;95.81;96908.72;5038322;28;20232;-74
2021/12/31 07:06:41;;;;;;;5.47;2.87;;;;;;;12.13;95.96;96914.50;5039013;28;20201;-74
2021/12/31 07:09:09;;;;;;;3.73;2.13;;;;;;;12.30;96.54;96899.25;5039607;28;20204;-72
2021/12/31 07:11:35;;;;;;;4.50;2.40;;;;;;;12.10;96.62;96899.00;5039390;28;20576;-72
2021/12/31 07:14:01;;;;;;;6.47;2.13;;;;;;;12.03;96.79;96900.66;5038324;28;20229;-73
2021/12/31 07:16:28;;;;;;;4.30;1.53;;;;;;;12.01;96.83;96898.19;5038558;28;20224;-74
2021/12/31 07:18:54;;;;;;;4.10;2.10;;;;;;;12.10;96.14;96896.34;5038787;28;20205;-72
2021/12/31 07:21:21;;;;;;;2.77;2.03;;;;;;;11.90;96.73;96901.22;5039609;28;20201;-72
2021/12/31 07:23:47;;;;;;;3.83;1.73;;;;;;;12.01;96.63;96902.66;5038495;28;20221;-72
2021/12/31 07:26:15;;;;;;;2.70;1.50;;;;;;;12.37;96.13;96902.00;5039011;28;21047;-73
2021/12/31 07:28:41;;;;;;;4.93;2.33;;;;;;;12.19;95.58;96910.19;5039012;28;20212;-72
2021/12/31 07:31:12;;;;;;;3.17;1.57;;;;;;;12.25;95.83;96911.31;5039223;28;20201;-73
2021/12/31 07:33:39;;;;;;;4.80;2.60;;;;;;;12.20;96.73;96918.94;5038113;28;20236;-73
2021/12/31 07:36:06;;;;;;;3.90;2.20;;;;;;;11.99;99.43;96921.31;5038719;28;20201;-72
2021/12/31 07:38:35;;;;;;;3.37;2.00;;;;;;;12.14;98.14;96929.38;5039197;28;20197;-72
2021/12/31 07:41:02;;;;;;;3.83;1.83;;;;;;;12.16;98.04;96921.09;5038304;28;20241;-73
2021/12/31 07:43:30;;;;;;;2.80;1.50;;;;;;;12.39;97.58;96924.63;5037761;28;20208;-74
2021/12/31 07:45:57;;;;;;;4.07;2.20;;;;;;;12.29;96.55;96921.38;5039287;28;20208;-72
2021/12/31 07:48:24;;;;;;;6.40;1.67;;;;;;;12.55;96.01;96918.44;5039257;28;20197;-74
2021/12/31 07:50:52;;;;;;;4.43;2.10;;;;;;;12.72;95.97;96925.34;5038174;28;20201;-73
2021/12/31 07:53:19;;;;;;;4.13;1.97;;;;;;;12.49;96.78;96927.91;5037633;28;20201;-75
2021/12/31 07:55:45;;;;;;;10.40;2.13;;;;;;;12.59;96.51;96925.03;5039010;28;20213;-73
2021/12/31 07:58:12;;;;;;;5.93;2.87;;;;;;;12.65;96.59;96925.16;5038114;28;20209;-73
2021/12/31 08:00:40;;;;;;;4.97;2.93;;;;;;;12.87;96.78;96924.44;5038373;28;20292;-73
2021/12/31 08:03:06;;;;;;;4.05;2.35;;;;;;;12.73;96.33;96925.16;5038317;28;20201;-72
2021/12/31 08:05:33;;;;;;;4.87;2.43;;;;;;;12.74;98.24;96925.97;5038237;28;20217;-72
2021/12/31 08:08:04;;;;;;;6.77;3.00;;;;;;;12.67;98.39;96917.91;5037801;28;20197;-73
2021/12/31 08:10:32;;;;;;;7.17;3.80;;;;;;;12.82;97.72;96922.28;5038290;28;20666;-73
2021/12/31 08:13:00;;;;;;;6.13;2.73;;;;;;;13.04;97.51;96920.69;5037661;28;20255;-73
2021/12/31 08:15:26;;;;;;;3.73;2.33;;;;;;;12.67;98.73;96925.84;5038085;28;20314;-72
2021/12/31 08:17:55;;;;;;;5.67;2.90;;;;;;;13.15;97.96;96923.75;5038167;28;20687;-72
2021/12/31 08:20:22;;;;;;;4.57;2.40;;;;;;;13.16;97.31;96917.47;5037754;28;20233;-73
2021/12/31 08:22:48;;;;;;;5.57;2.77;;;;;;;13.11;97.24;96927.75;5036867;28;20208;-73
2021/12/31 08:25:15;;;;;;;6.47;2.97;;;;;;;13.02;97.50;96925.31;5035232;28;20220;-72
2021/12/31 08:27:42;;;;;;;7.03;3.27;;;;;;;13.24;97.27;96922.69;5038024;28;20197;-73
2021/12/31 08:30:10;;;;;;;4.77;2.37;;;;;;;13.30;97.44;96913.22;5037942;28;20204;-72
2021/12/31 08:32:37;;;;;;;5.07;2.33;;;;;;;13.16;98.36;96919.28;5036891;28;20474;-73
2021/12/31 08:35:05;;;;;;;4.80;2.53;;;;;;;13.25;98.93;96923.50;5037479;28;20233;-74
2021/12/31 08:37:32;;;;;;;4.63;2.70;;;;;;;13.00;99.18;96924.69;5037290;28;20212;-73
2021/12/31 08:39:59;;;;;;;3.27;2.30;;;;;;;13.01;99.97;96937.75;5037686;28;20205;-72
2021/12/31 08:42:26;;;;;;;5.60;2.70;;;;;;;12.89;100.00;96933.84;5037513;28;20212;-73
2021/12/31 08:44:52;;;;;;;7.30;3.10;;;;;;;12.96;99.59;96939.28;5037641;28;20217;-73
2021/12/31 08:47:19;;;;;;;5.33;2.30;;;;;;;13.03;98.62;96933.06;5037302;28;20201;-73
2021/12/31 08:49:46;;;;;;;5.67;2.30;;;;;;;13.12;97.69;96937.34;5037575;28;20216;-73
2021/12/31 08:52:14;;;;;;;4.27;2.60;;;;;;;13.67;96.29;96930.78;5036726;28;20739;-73
2021/12/31 08:54:40;;;;;;;5.23;2.27;;;;;;;13.47;95.58;96945.50;5037188;28;20239;-74
2021/12/31 08:57:07;;;;;;;5.93;3.13;;;;;;;13.38;96.21;96943.94;5037174;28;20331;-73
2021/12/31 08:59:33;;;;;;;3.90;2.23;;;;;;;13.44;96.09;96937.94;5038051;28;20603;-75
2021/12/31 09:02:00;;;;;;;9.10;3.53;;;;;;;13.44;96.06;96930.00;5036735;28;20208;-73
2021/12/31 09:04:26;;;;;;;7.17;2.90;;;;;;;13.61;95.12;96923.53;5035826;28;20224;-73
2021/12/31 09:06:53;;;;;;;4.57;2.67;;;;;;;13.62;94.98;96932.31;5037480;28;20212;-69
2021/12/31 09:09:21;;;;;;;6.90;3.27;;;;;;;13.84;95.45;96916.38;5036533;28;20210;-72
2021/12/31 09:11:47;;;;;;;10.97;5.67;;;;;;;13.90;94.58;96925.41;5037027;28;20662;-72
2021/12/31 09:14:15;;;;;;;7.90;3.23;;;;;;;13.79;95.75;96934.63;5036626;28;20233;-73
2021/12/31 09:16:45;;;;;;;4.03;2.03;;;;;;;13.40;96.93;96939.28;5037419;28;20212;-73
2021/12/31 09:19:12;;;;;;;6.07;3.20;;;;;;;13.37;97.22;96941.47;5036596;28;20555;-72
2021/12/31 09:21:39;;;;;;;6.57;3.37;;;;;;;13.74;95.74;96937.00;5037289;28;20236;-73
2021/12/31 09:24:06;;;;;;;12.50;4.00;;;;;;;13.80;95.88;96936.28;5035919;28;20224;-72
2021/12/31 09:26:35;;;;;;;6.93;3.10;;;;;;;13.78;95.84;96940.94;5036713;28;20235;-73
2021/12/31 09:29:01;;;;;;;5.57;2.93;;;;;;;13.32;96.52;96946.47;5036756;28;20205;-70
2021/12/31 09:31:28;;;;;;;6.37;2.73;;;;;;;13.56;95.84;96941.78;5036901;28;20197;-71
2021/12/31 09:33:55;;;;;;;3.20;1.80;;;;;;;13.44;96.20;96945.88;5035693;28;20220;-72
2021/12/31 09:36:21;;;;;;;5.57;3.67;;;;;;;13.49;95.58;96940.88;5036527;28;20212;-71
2021/12/31 09:38:48;;;;;;;3.23;1.87;;;;;;;13.46;95.45;96937.75;5036081;28;20215;-72
2021/12/31 09:41:14;;;;;;;4.13;2.13;;;;;;;13.83;94.39;96929.81;5036814;28;20280;-74
2021/12/31 09:43:46;;;;;;;5.03;2.70;;;;;;;14.42;93.03;96927.03;5035672;28;20221;-70
2021/12/31 09:46:12;;;;;;;3.47;2.27;;;;;;;13.99;93.82;96925.19;5036578;28;20290;-70
2021/12/31 09:48:39;;;;;;;7.32;2.53;;;;;;;13.83;94.31;96925.31;5036500;28;20892;-71
2021/12/31 09:51:07;;;;;;;7.32;2.83;;;;;;;14.08;94.75;96929.44;5036603;28;20205;-73
2021/12/31 09:53:34;;;;;;;4.10;2.47;;;;;;;13.61;95.00;96930.69;5036139;28;20201;-72
2021/12/31 09:56:00;;;;;;;6.60;2.70;;;;;;;13.75;94.29;96933.34;5036054;28;20224;-71
2021/12/31 09:58:28;;;;;;;5.30;2.53;;;;;;;13.97;94.55;96916.56;5036293;28;20204;-73
2021/12/31 10:00:57;;;;;;;4.63;2.30;;;;;;;14.20;93.71;96909.41;5036956;28;20212;-70
2021/12/31 10:03:26;;;;;;;4.33;2.13;;;;;;;14.19;93.01;96907.75;5035761;28;20247;-72
2021/12/31 10:05:55;;;;;;;3.93;1.83;;;;;;;13.96;94.94;96901.66;5036341;28;20231;-71
2021/12/31 10:08:23;;;;;;;2.57;1.83;;;;;;;14.09;93.48;96901.88;5036201;28;20205;-71
2021/12/31 10:11:04;;;;;;;4.55;2.13;;;;;;;14.55;91.90;96898.03;5036257;28;20209;-71
2021/12/31 10:13:31;;;;;;;6.43;3.17;;;;;;;14.05;92.87;96897.94;5036085;28;20208;-71
2021/12/31 10:15:59;;;;;;;4.90;2.60;;;;;;;14.05;94.38;96898.78;5035307;28;20227;-73
2021/12/31 10:18:30;;;;;;;5.27;2.83;;;;;;;14.35;91.50;96897.78;5036065;28;20205;-72
2021/12/31 10:20:57;;;;;;;6.20;2.57;;;;;;;13.96;92.97;96893.72;5036160;28;20216;-71
2021/12/31 10:23:23;;;;;;;4.97;2.13;;;;;;;14.02;92.37;96890.34;5036152;28;20220;-71
2021/12/31 10:25:50;;;;;;;4.35;1.95;;;;;;;14.29;91.91;96895.06;5036095;28;20213;-73
2021/12/31 10:28:18;;;;;;;2.83;2.03;;;;;;;14.50;91.25;96889.81;5036876;28;20217;-72
2021/12/31 10:30:46;;;;;;;5.50;1.90;;;;;;;14.10;92.22;96885.84;5036306;28;20201;-72
2021/12/31 10:33:13;;;;;;;3.93;2.23;;;;;;;14.53;90.41;96884.16;5035825;28;20300;-71
2021/12/31 10:35:42;;;;;;;5.00;1.77;;;;;;;14.43;91.05;96883.59;5035960;28;20239;-74
2021/12/31 10:38:12;;;;;;;2.72;1.65;;;;;;;14.20;91.49;96882.91;5036313;28;20995;-72
2021/12/31 10:40:41;;;;;;;2.53;1.80;;;;;;;14.54;90.31;96877.84;5034190;28;20212;-72
2021/12/31 10:43:15;;;;;;;3.17;1.60;;;;;;;14.80;89.09;96879.78;5035578;28;20278;-72
2021/12/31 10:45:56;;;;;;;3.05;1.65;;;;;;;14.68;89.50;96869.84;5035852;28;20213;-73
2021/12/31 10:48:38;;;;;;;5.30;2.28;;;;;;;14.75;89.11;96871.56;5035453;28;20211;-73
2021/12/31 10:51:04;;;;;;;2.72;1.73;;;;;;;14.07;91.23;96867.59;5037097;28;20197;-71
2021/12/31 10:53:34;;;;;;;3.63;1.92;;;;;;;14.77;88.87;96861.56;5039891;28;20597;-71
2021/12/31 10:56:06;;;;;;;3.45;1.85;;;;;;;14.94;88.04;96862.16;5040002;28;20224;-72
2021/12/31 10:58:32;;;;;;;1.83;1.67;;;;;;;14.73;88.36;96862.97;5039697;28;20236;-75
2021/12/31 11:00:59;;;;;;;3.10;1.60;;;;;;;14.93;87.55;96864.00;5040577;28;20213;-71
2021/12/31 11:03:28;;;;;;;2.85;1.60;;;;;;;15.24;86.94;96861.91;5039498;28;20236;-73
2021/12/31 11:05:58;;;;;;;4.32;2.28;;;;;;;15.47;85.66;96851.88;5039733;28;20206;-74
2021/12/31 11:08:27;;;;;;;3.78;1.45;;;;;;;15.46;84.93;96842.25;5039712;28;20197;-73
2021/12/31 11:10:55;;;;;;;4.30;2.20;;;;;;;15.38;84.67;96853.03;5039419;28;20240;-73
2021/12/31 11:13:25;;;;;;;2.05;1.20;;;;;;;15.16;86.15;96847.88;5038032;28;20581;-72
2021/12/31 11:15:52;;;;;;;2.45;1.65;;;;;;;15.07;86.06;96849.88;5039232;28;20221;-71
2021/12/31 11:18:23;;;;;;;2.92;1.60;;;;;;;15.18;85.35;96848.53;5038864;28;20201;-74
2021/12/31 11:20:53;;;;;;;1.52;1.15;;;;;;;15.01;86.43;96855.91;5038516;28;20205;-70
2021/12/31 11:23:24;;;;;;;2.45;1.50;;;;;;;15.39;85.66;96844.88;5038204;28;20217;-72
2021/12/31 11:25:53;;;;;;;2.20;1.30;;;;;;;15.36;85.98;96847.06;5038907;28;20300;-72
2021/12/31 11:28:28;;;;;;;3.83;2.05;;;;;;;15.79;84.48;96846.00;5035425;28;20216;-70
2021/12/31 11:30:57;;;;;;;2.88;1.65;;;;;;;15.83;84.15;96836.63;5038524;28;20223;-73
2021/12/31 11:33:28;;;;;;;2.85;1.67;;;;;;;15.99;82.90;96832.63;5037934;28;20247;-73
2021/12/31 11:36:02;;;;;;;2.75;1.55;;;;;;;15.86;82.48;96831.75;5037045;28;20221;-70